sensor_id;sensor_type;location;lat;lon;timestamp;P1;durP1;ratioP1;P2;durP2;ratioP2
71351;SDS011;59159;51.652;4.864;2023-04-06T00:01:09;6.10;;;2.67;;
71351;SDS011;59159;51.652;4.864;2023-04-06T00:03:35;6.13;;;2.92;;
71351;SDS011;59159;51.652;4.864;2023-04-06T00:06:01;6.10;;;2.30;;
71351;SDS011;59159;51.652;4.864;2023-04-06T00:08:27;7.95;;;2.55;;
71351;SDS011;59159;51.652;4.864;2023-04-06T00:10:54;6.95;;;2.90;;
71351;SDS011;59159;51.652;4.864;2023-04-06T00:13:20;6.57;;;2.47;;
71351;SDS011;59159;51.652;4.864;2023-04-06T00:15:46;7.40;;;2.73;;
71351;SDS011;59159;51.652;4.864;2023-04-06T00:18:12;6.32;;;2.80;;
71351;SDS011;59159;51.652;4.864;2023-04-06T00:20:38;6.43;;;2.35;;
71351;SDS011;59159;51.652;4.864;2023-04-06T00:23:05;7.13;;;2.63;;
71351;SDS011;59159;51.652;4.864;2023-04-06T00:25:31;6.13;;;2.63;;
71351;SDS011;59159;51.652;4.864;2023-04-06T00:27:57;6.25;;;2.20;;
71351;SDS011;59159;51.652;4.864;2023-04-06T00:30:24;6.47;;;2.23;;
71351;SDS011;59159;51.652;4.864;2023-04-06T00:32:50;8.23;;;2.83;;
71351;SDS011;59159;51.652;4.864;2023-04-06T00:35:16;7.10;;;3.08;;
71351;SDS011;59159;51.652;4.864;2023-04-06T00:37:42;6.97;;;2.75;;
71351;SDS011;59159;51.652;4.864;2023-04-06T00:40:08;6.27;;;2.30;;
71351;SDS011;59159;51.652;4.864;2023-04-06T00:42:34;6.50;;;2.53;;
71351;SDS011;59159;51.652;4.864;2023-04-06T00:45:01;8.45;;;2.35;;
71351;SDS011;59159;51.652;4.864;2023-04-06T00:47:27;7.00;;;2.67;;
71351;SDS011;59159;51.652;4.864;2023-04-06T00:49:53;6.05;;;2.30;;
71351;SDS011;59159;51.652;4.864;2023-04-06T00:52:20;7.78;;;2.97;;
71351;SDS011;59159;51.652;4.864;2023-04-06T00:54:46;6.37;;;2.53;;
71351;SDS011;59159;51.652;4.864;2023-04-06T00:57:12;6.47;;;2.33;;
71351;SDS011;59159;51.652;4.864;2023-04-06T00:59:39;8.45;;;3.17;;
71351;SDS011;59159;51.652;4.864;2023-04-06T01:02:05;6.25;;;2.65;;
71351;SDS011;59159;51.652;4.864;2023-04-06T01:04:31;6.10;;;2.43;;
71351;SDS011;59159;51.652;4.864;2023-04-06T01:06:59;6.90;;;2.45;;
71351;SDS011;59159;51.652;4.864;2023-04-06T01:09:27;7.68;;;3.00;;
71351;SDS011;59159;51.652;4.864;2023-04-06T01:11:53;6.50;;;2.73;;
71351;SDS011;59159;51.652;4.864;2023-04-06T01:14:20;7.57;;;2.70;;
71351;SDS011;59159;51.652;4.864;2023-04-06T01:16:46;6.22;;;2.45;;
71351;SDS011;59159;51.652;4.864;2023-04-06T01:19:12;6.67;;;2.80;;
71351;SDS011;59159;51.652;4.864;2023-04-06T01:21:39;7.47;;;2.70;;
71351;SDS011;59159;51.652;4.864;2023-04-06T01:24:05;6.95;;;2.60;;
71351;SDS011;59159;51.652;4.864;2023-04-06T01:26:32;5.40;;;2.22;;
71351;SDS011;59159;51.652;4.864;2023-04-06T01:28:58;6.00;;;2.50;;
71351;SDS011;59159;51.652;4.864;2023-04-06T01:31:24;7.57;;;3.17;;
71351;SDS011;59159;51.652;4.864;2023-04-06T01:33:51;7.50;;;2.90;;
71351;SDS011;59159;51.652;4.864;2023-04-06T01:36:17;5.67;;;2.10;;
71351;SDS011;59159;51.652;4.864;2023-04-06T01:38:43;6.80;;;2.78;;
71351;SDS011;59159;51.652;4.864;2023-04-06T01:41:09;6.05;;;2.75;;
71351;SDS011;59159;51.652;4.864;2023-04-06T01:43:35;6.93;;;2.70;;
71351;SDS011;59159;51.652;4.864;2023-04-06T01:46:01;7.60;;;2.75;;
71351;SDS011;59159;51.652;4.864;2023-04-06T01:48:27;6.20;;;2.55;;
71351;SDS011;59159;51.652;4.864;2023-04-06T01:50:54;9.40;;;2.92;;
71351;SDS011;59159;51.652;4.864;2023-04-06T01:53:20;7.23;;;2.80;;
71351;SDS011;59159;51.652;4.864;2023-04-06T01:55:46;6.53;;;2.17;;
71351;SDS011;59159;51.652;4.864;2023-04-06T01:58:12;7.72;;;2.75;;
71351;SDS011;59159;51.652;4.864;2023-04-06T02:00:39;7.73;;;3.20;;
71351;SDS011;59159;51.652;4.864;2023-04-06T02:03:05;6.95;;;2.60;;
71351;SDS011;59159;51.652;4.864;2023-04-06T02:05:32;7.25;;;2.78;;
71351;SDS011;59159;51.652;4.864;2023-04-06T02:08:03;6.57;;;2.57;;
71351;SDS011;59159;51.652;4.864;2023-04-06T02:10:31;7.78;;;2.63;;
71351;SDS011;59159;51.652;4.864;2023-04-06T02:12:57;6.03;;;2.80;;
71351;SDS011;59159;51.652;4.864;2023-04-06T02:15:24;7.43;;;2.85;;
71351;SDS011;59159;51.652;4.864;2023-04-06T02:17:50;7.20;;;2.77;;
71351;SDS011;59159;51.652;4.864;2023-04-06T02:20:16;7.53;;;2.90;;
71351;SDS011;59159;51.652;4.864;2023-04-06T02:22:42;6.68;;;2.78;;
71351;SDS011;59159;51.652;4.864;2023-04-06T02:25:08;6.50;;;2.50;;
71351;SDS011;59159;51.652;4.864;2023-04-06T02:27:34;9.55;;;2.97;;
71351;SDS011;59159;51.652;4.864;2023-04-06T02:30:01;6.07;;;2.47;;
71351;SDS011;59159;51.652;4.864;2023-04-06T02:32:27;7.27;;;2.83;;
71351;SDS011;59159;51.652;4.864;2023-04-06T02:34:53;6.32;;;2.85;;
71351;SDS011;59159;51.652;4.864;2023-04-06T02:37:19;7.60;;;3.28;;
71351;SDS011;59159;51.652;4.864;2023-04-06T02:39:45;6.93;;;2.85;;
71351;SDS011;59159;51.652;4.864;2023-04-06T02:42:11;6.60;;;2.67;;
71351;SDS011;59159;51.652;4.864;2023-04-06T02:44:37;7.13;;;2.50;;
71351;SDS011;59159;51.652;4.864;2023-04-06T02:47:03;7.03;;;2.72;;
71351;SDS011;59159;51.652;4.864;2023-04-06T02:49:29;8.30;;;2.87;;
71351;SDS011;59159;51.652;4.864;2023-04-06T02:51:55;8.50;;;3.10;;
71351;SDS011;59159;51.652;4.864;2023-04-06T02:54:21;7.75;;;2.65;;
71351;SDS011;59159;51.652;4.864;2023-04-06T02:56:47;7.27;;;2.80;;
71351;SDS011;59159;51.652;4.864;2023-04-06T02:59:13;6.30;;;2.45;;
71351;SDS011;59159;51.652;4.864;2023-04-06T03:01:40;8.55;;;3.22;;
71351;SDS011;59159;51.652;4.864;2023-04-06T03:04:05;7.20;;;2.88;;
71351;SDS011;59159;51.652;4.864;2023-04-06T03:06:31;7.40;;;3.10;;
71351;SDS011;59159;51.652;4.864;2023-04-06T03:08:57;7.85;;;3.10;;
71351;SDS011;59159;51.652;4.864;2023-04-06T03:11:23;7.88;;;3.58;;
71351;SDS011;59159;51.652;4.864;2023-04-06T03:13:51;6.57;;;2.70;;
71351;SDS011;59159;51.652;4.864;2023-04-06T03:16:17;6.80;;;2.53;;
71351;SDS011;59159;51.652;4.864;2023-04-06T03:18:43;7.78;;;3.28;;
71351;SDS011;59159;51.652;4.864;2023-04-06T03:21:13;7.83;;;3.27;;
71351;SDS011;59159;51.652;4.864;2023-04-06T03:23:42;7.85;;;3.08;;
71351;SDS011;59159;51.652;4.864;2023-04-06T03:26:08;7.13;;;2.90;;
71351;SDS011;59159;51.652;4.864;2023-04-06T03:28:34;8.70;;;3.00;;
71351;SDS011;59159;51.652;4.864;2023-04-06T03:31:01;7.93;;;3.10;;
71351;SDS011;59159;51.652;4.864;2023-04-06T03:33:27;8.55;;;3.60;;
71351;SDS011;59159;51.652;4.864;2023-04-06T03:35:53;7.90;;;3.10;;
71351;SDS011;59159;51.652;4.864;2023-04-06T03:38:19;7.47;;;3.00;;
71351;SDS011;59159;51.652;4.864;2023-04-06T03:40:45;7.15;;;3.05;;
71351;SDS011;59159;51.652;4.864;2023-04-06T03:43:11;10.10;;;3.00;;
71351;SDS011;59159;51.652;4.864;2023-04-06T03:45:37;7.60;;;3.00;;
71351;SDS011;59159;51.652;4.864;2023-04-06T03:48:04;9.05;;;3.90;;
71351;SDS011;59159;51.652;4.864;2023-04-06T03:50:30;7.60;;;2.88;;
71351;SDS011;59159;51.652;4.864;2023-04-06T03:52:56;7.38;;;3.20;;
71351;SDS011;59159;51.652;4.864;2023-04-06T03:55:22;8.17;;;3.10;;
71351;SDS011;59159;51.652;4.864;2023-04-06T03:57:48;9.25;;;3.22;;
71351;SDS011;59159;51.652;4.864;2023-04-06T04:00:14;7.20;;;2.42;;
71351;SDS011;59159;51.652;4.864;2023-04-06T04:02:41;8.03;;;3.30;;
71351;SDS011;59159;51.652;4.864;2023-04-06T04:05:07;7.93;;;3.42;;
71351;SDS011;59159;51.652;4.864;2023-04-06T04:07:33;8.23;;;3.03;;
71351;SDS011;59159;51.652;4.864;2023-04-06T04:09:59;7.77;;;2.70;;
71351;SDS011;59159;51.652;4.864;2023-04-06T04:12:25;8.00;;;3.20;;
71351;SDS011;59159;51.652;4.864;2023-04-06T04:14:51;7.45;;;3.10;;
71351;SDS011;59159;51.652;4.864;2023-04-06T04:17:17;8.05;;;2.88;;
71351;SDS011;59159;51.652;4.864;2023-04-06T04:19:43;7.63;;;3.50;;
71351;SDS011;59159;51.652;4.864;2023-04-06T04:22:09;7.57;;;3.05;;
71351;SDS011;59159;51.652;4.864;2023-04-06T04:24:35;8.48;;;3.25;;
71351;SDS011;59159;51.652;4.864;2023-04-06T04:27:01;7.90;;;3.00;;
71351;SDS011;59159;51.652;4.864;2023-04-06T04:29:27;7.10;;;2.70;;
71351;SDS011;59159;51.652;4.864;2023-04-06T04:31:53;9.18;;;3.40;;
71351;SDS011;59159;51.652;4.864;2023-04-06T04:34:19;7.23;;;2.90;;
71351;SDS011;59159;51.652;4.864;2023-04-06T04:36:46;8.65;;;3.13;;
71351;SDS011;59159;51.652;4.864;2023-04-06T04:39:12;8.45;;;3.50;;
71351;SDS011;59159;51.652;4.864;2023-04-06T04:41:37;8.02;;;3.55;;
71351;SDS011;59159;51.652;4.864;2023-04-06T04:44:04;8.43;;;3.30;;
71351;SDS011;59159;51.652;4.864;2023-04-06T04:46:30;7.80;;;3.70;;
71351;SDS011;59159;51.652;4.864;2023-04-06T04:48:56;7.45;;;2.97;;
71351;SDS011;59159;51.652;4.864;2023-04-06T04:51:22;7.60;;;3.10;;
71351;SDS011;59159;51.652;4.864;2023-04-06T04:53:49;8.93;;;3.40;;
71351;SDS011;59159;51.652;4.864;2023-04-06T04:56:15;10.50;;;3.50;;
71351;SDS011;59159;51.652;4.864;2023-04-06T04:58:41;7.93;;;3.00;;
71351;SDS011;59159;51.652;4.864;2023-04-06T05:01:07;10.70;;;4.85;;
71351;SDS011;59159;51.652;4.864;2023-04-06T05:03:33;9.85;;;4.72;;
71351;SDS011;59159;51.652;4.864;2023-04-06T05:06:00;9.05;;;4.00;;
71351;SDS011;59159;51.652;4.864;2023-04-06T05:08:26;10.73;;;4.67;;
71351;SDS011;59159;51.652;4.864;2023-04-06T05:10:53;9.57;;;4.07;;
71351;SDS011;59159;51.652;4.864;2023-04-06T05:13:22;10.82;;;4.07;;
71351;SDS011;59159;51.652;4.864;2023-04-06T05:15:48;9.07;;;3.60;;
71351;SDS011;59159;51.652;4.864;2023-04-06T05:18:14;9.63;;;3.83;;
71351;SDS011;59159;51.652;4.864;2023-04-06T05:20:41;8.90;;;4.00;;
71351;SDS011;59159;51.652;4.864;2023-04-06T05:23:08;8.50;;;3.70;;
71351;SDS011;59159;51.652;4.864;2023-04-06T05:25:35;9.10;;;3.90;;
71351;SDS011;59159;51.652;4.864;2023-04-06T05:28:01;8.52;;;4.13;;
71351;SDS011;59159;51.652;4.864;2023-04-06T05:30:27;8.32;;;3.25;;
71351;SDS011;59159;51.652;4.864;2023-04-06T05:32:53;8.07;;;3.80;;
71351;SDS011;59159;51.652;4.864;2023-04-06T05:35:20;10.32;;;4.22;;
71351;SDS011;59159;51.652;4.864;2023-04-06T05:37:46;9.38;;;4.30;;
71351;SDS011;59159;51.652;4.864;2023-04-06T05:40:12;10.17;;;4.10;;
71351;SDS011;59159;51.652;4.864;2023-04-06T05:42:38;11.43;;;4.05;;
71351;SDS011;59159;51.652;4.864;2023-04-06T05:45:08;8.55;;;3.55;;
71351;SDS011;59159;51.652;4.864;2023-04-06T05:47:35;8.33;;;3.53;;
71351;SDS011;59159;51.652;4.864;2023-04-06T05:50:01;8.73;;;3.80;;
71351;SDS011;59159;51.652;4.864;2023-04-06T05:52:27;8.15;;;3.17;;
71351;SDS011;59159;51.652;4.864;2023-04-06T05:54:53;7.50;;;3.40;;
71351;SDS011;59159;51.652;4.864;2023-04-06T05:57:19;8.60;;;3.43;;
71351;SDS011;59159;51.652;4.864;2023-04-06T05:59:45;9.93;;;3.47;;
71351;SDS011;59159;51.652;4.864;2023-04-06T06:02:11;9.35;;;3.38;;
71351;SDS011;59159;51.652;4.864;2023-04-06T06:04:38;7.10;;;2.93;;
71351;SDS011;59159;51.652;4.864;2023-04-06T06:07:04;8.05;;;3.10;;
71351;SDS011;59159;51.652;4.864;2023-04-06T06:09:30;7.10;;;2.97;;
71351;SDS011;59159;51.652;4.864;2023-04-06T06:11:56;8.03;;;3.27;;
71351;SDS011;59159;51.652;4.864;2023-04-06T06:14:22;7.65;;;3.10;;
71351;SDS011;59159;51.652;4.864;2023-04-06T06:16:48;7.78;;;2.83;;
71351;SDS011;59159;51.652;4.864;2023-04-06T06:19:14;7.07;;;2.90;;
71351;SDS011;59159;51.652;4.864;2023-04-06T06:21:40;7.97;;;3.00;;
71351;SDS011;59159;51.652;4.864;2023-04-06T06:24:07;8.85;;;3.17;;
71351;SDS011;59159;51.652;4.864;2023-04-06T06:26:33;6.95;;;2.70;;
71351;SDS011;59159;51.652;4.864;2023-04-06T06:29:02;7.00;;;2.87;;
71351;SDS011;59159;51.652;4.864;2023-04-06T06:31:29;7.30;;;3.00;;
71351;SDS011;59159;51.652;4.864;2023-04-06T06:33:55;8.45;;;3.75;;
71351;SDS011;59159;51.652;4.864;2023-04-06T06:36:21;7.07;;;2.70;;
71351;SDS011;59159;51.652;4.864;2023-04-06T06:38:47;8.63;;;3.25;;
71351;SDS011;59159;51.652;4.864;2023-04-06T06:41:13;7.22;;;3.03;;
71351;SDS011;59159;51.652;4.864;2023-04-06T06:43:40;8.02;;;3.00;;
71351;SDS011;59159;51.652;4.864;2023-04-06T06:46:06;8.43;;;3.33;;
71351;SDS011;59159;51.652;4.864;2023-04-06T06:48:33;6.82;;;2.60;;
71351;SDS011;59159;51.652;4.864;2023-04-06T06:50:59;6.38;;;2.75;;
71351;SDS011;59159;51.652;4.864;2023-04-06T06:53:25;7.47;;;2.73;;
71351;SDS011;59159;51.652;4.864;2023-04-06T06:55:51;7.47;;;2.92;;
71351;SDS011;59159;51.652;4.864;2023-04-06T06:58:18;6.30;;;2.60;;
71351;SDS011;59159;51.652;4.864;2023-04-06T07:00:47;7.27;;;2.40;;
71351;SDS011;59159;51.652;4.864;2023-04-06T07:03:13;7.80;;;2.72;;
71351;SDS011;59159;51.652;4.864;2023-04-06T07:05:44;9.00;;;3.30;;
71351;SDS011;59159;51.652;4.864;2023-04-06T07:08:14;9.40;;;3.22;;
71351;SDS011;59159;51.652;4.864;2023-04-06T07:10:40;6.63;;;2.70;;
71351;SDS011;59159;51.652;4.864;2023-04-06T07:13:06;7.60;;;3.30;;
71351;SDS011;59159;51.652;4.864;2023-04-06T07:15:32;6.18;;;2.50;;
71351;SDS011;59159;51.652;4.864;2023-04-06T07:17:58;7.27;;;3.20;;
71351;SDS011;59159;51.652;4.864;2023-04-06T07:20:24;7.70;;;3.03;;
71351;SDS011;59159;51.652;4.864;2023-04-06T07:22:52;7.28;;;2.90;;
71351;SDS011;59159;51.652;4.864;2023-04-06T07:25:19;8.17;;;2.63;;
71351;SDS011;59159;51.652;4.864;2023-04-06T07:27:45;8.02;;;2.90;;
71351;SDS011;59159;51.652;4.864;2023-04-06T07:30:12;8.43;;;3.28;;
71351;SDS011;59159;51.652;4.864;2023-04-06T07:32:39;8.35;;;3.00;;
71351;SDS011;59159;51.652;4.864;2023-04-06T07:35:05;7.27;;;2.70;;
71351;SDS011;59159;51.652;4.864;2023-04-06T07:37:31;7.55;;;3.00;;
71351;SDS011;59159;51.652;4.864;2023-04-06T07:39:57;7.57;;;3.60;;
71351;SDS011;59159;51.652;4.864;2023-04-06T07:42:23;7.10;;;2.70;;
71351;SDS011;59159;51.652;4.864;2023-04-06T07:44:49;6.75;;;2.67;;
71351;SDS011;59159;51.652;4.864;2023-04-06T07:47:15;8.18;;;2.38;;
71351;SDS011;59159;51.652;4.864;2023-04-06T07:49:41;6.80;;;3.03;;
71351;SDS011;59159;51.652;4.864;2023-04-06T07:52:07;7.20;;;2.33;;
71351;SDS011;59159;51.652;4.864;2023-04-06T07:54:33;6.32;;;2.38;;
71351;SDS011;59159;51.652;4.864;2023-04-06T07:56:59;7.60;;;2.88;;
71351;SDS011;59159;51.652;4.864;2023-04-06T07:59:25;7.30;;;2.60;;
71351;SDS011;59159;51.652;4.864;2023-04-06T08:01:51;11.48;;;2.72;;
71351;SDS011;59159;51.652;4.864;2023-04-06T08:04:17;6.95;;;2.58;;
71351;SDS011;59159;51.652;4.864;2023-04-06T08:06:43;6.43;;;2.57;;
71351;SDS011;59159;51.652;4.864;2023-04-06T08:09:09;6.63;;;2.80;;
71351;SDS011;59159;51.652;4.864;2023-04-06T08:11:35;6.28;;;2.60;;
71351;SDS011;59159;51.652;4.864;2023-04-06T08:14:01;7.40;;;2.87;;
71351;SDS011;59159;51.652;4.864;2023-04-06T08:16:27;7.70;;;2.80;;
71351;SDS011;59159;51.652;4.864;2023-04-06T08:18:53;8.90;;;3.65;;
71351;SDS011;59159;51.652;4.864;2023-04-06T08:21:19;7.25;;;2.72;;
71351;SDS011;59159;51.652;4.864;2023-04-06T08:23:45;6.33;;;2.77;;
71351;SDS011;59159;51.652;4.864;2023-04-06T08:26:11;8.20;;;2.67;;
71351;SDS011;59159;51.652;4.864;2023-04-06T08:28:37;6.78;;;2.63;;
71351;SDS011;59159;51.652;4.864;2023-04-06T08:31:04;6.53;;;2.33;;
71351;SDS011;59159;51.652;4.864;2023-04-06T08:33:30;7.25;;;2.50;;
71351;SDS011;59159;51.652;4.864;2023-04-06T08:35:56;7.10;;;2.75;;
71351;SDS011;59159;51.652;4.864;2023-04-06T08:38:22;6.77;;;2.93;;
71351;SDS011;59159;51.652;4.864;2023-04-06T08:40:48;7.78;;;2.60;;
71351;SDS011;59159;51.652;4.864;2023-04-06T08:43:16;6.85;;;2.63;;
71351;SDS011;59159;51.652;4.864;2023-04-06T08:45:42;7.05;;;2.83;;
71351;SDS011;59159;51.652;4.864;2023-04-06T08:48:09;6.70;;;2.70;;
71351;SDS011;59159;51.652;4.864;2023-04-06T08:50:35;6.78;;;2.42;;
71351;SDS011;59159;51.652;4.864;2023-04-06T08:53:01;7.70;;;2.83;;
71351;SDS011;59159;51.652;4.864;2023-04-06T08:55:27;7.67;;;2.53;;
71351;SDS011;59159;51.652;4.864;2023-04-06T08:57:53;7.07;;;2.67;;
71351;SDS011;59159;51.652;4.864;2023-04-06T09:00:21;6.35;;;2.25;;
71351;SDS011;59159;51.652;4.864;2023-04-06T09:02:47;6.90;;;2.40;;
71351;SDS011;59159;51.652;4.864;2023-04-06T09:05:14;8.82;;;2.83;;
71351;SDS011;59159;51.652;4.864;2023-04-06T09:07:41;6.25;;;2.50;;
71351;SDS011;59159;51.652;4.864;2023-04-06T09:10:07;6.53;;;2.50;;
71351;SDS011;59159;51.652;4.864;2023-04-06T09:12:34;6.83;;;2.13;;
71351;SDS011;59159;51.652;4.864;2023-04-06T09:15:00;6.00;;;2.90;;
71351;SDS011;59159;51.652;4.864;2023-04-06T09:17:28;5.85;;;1.95;;
71351;SDS011;59159;51.652;4.864;2023-04-06T09:19:55;6.40;;;2.10;;
71351;SDS011;59159;51.652;4.864;2023-04-06T09:22:21;5.15;;;1.85;;
71351;SDS011;59159;51.652;4.864;2023-04-06T09:24:50;6.75;;;2.72;;
71351;SDS011;59159;51.652;4.864;2023-04-06T09:27:16;6.53;;;2.03;;
71351;SDS011;59159;51.652;4.864;2023-04-06T09:29:43;6.55;;;2.00;;
71351;SDS011;59159;51.652;4.864;2023-04-06T09:32:10;5.25;;;1.90;;
71351;SDS011;59159;51.652;4.864;2023-04-06T09:34:37;6.28;;;1.85;;
71351;SDS011;59159;51.652;4.864;2023-04-06T09:37:16;5.33;;;1.80;;
71351;SDS011;59159;51.652;4.864;2023-04-06T09:39:43;6.20;;;2.22;;
71351;SDS011;59159;51.652;4.864;2023-04-06T09:42:09;6.85;;;2.03;;
71351;SDS011;59159;51.652;4.864;2023-04-06T09:44:35;5.70;;;2.07;;
71351;SDS011;59159;51.652;4.864;2023-04-06T09:47:01;5.13;;;1.67;;
71351;SDS011;59159;51.652;4.864;2023-04-06T09:49:30;6.85;;;2.40;;
71351;SDS011;59159;51.652;4.864;2023-04-06T09:51:58;5.10;;;1.70;;
71351;SDS011;59159;51.652;4.864;2023-04-06T09:54:25;6.18;;;2.00;;
71351;SDS011;59159;51.652;4.864;2023-04-06T09:59:51;4.88;;;1.60;;
71351;SDS011;59159;51.652;4.864;2023-04-06T10:02:22;5.83;;;1.80;;
71351;SDS011;59159;51.652;4.864;2023-04-06T10:04:53;5.75;;;1.60;;
71351;SDS011;59159;51.652;4.864;2023-04-06T10:07:22;5.40;;;1.45;;
71351;SDS011;59159;51.652;4.864;2023-04-06T10:09:48;4.93;;;1.50;;
71351;SDS011;59159;51.652;4.864;2023-04-06T10:12:15;5.55;;;1.95;;
71351;SDS011;59159;51.652;4.864;2023-04-06T10:14:41;5.90;;;1.55;;
71351;SDS011;59159;51.652;4.864;2023-04-06T10:17:08;5.20;;;1.70;;
71351;SDS011;59159;51.652;4.864;2023-04-06T10:19:55;4.63;;;1.35;;
71351;SDS011;59159;51.652;4.864;2023-04-06T10:22:29;6.47;;;1.73;;
71351;SDS011;59159;51.652;4.864;2023-04-06T10:24:57;4.57;;;1.50;;
71351;SDS011;59159;51.652;4.864;2023-04-06T10:27:27;4.77;;;1.60;;
71351;SDS011;59159;51.652;4.864;2023-04-06T10:29:54;6.85;;;1.60;;
71351;SDS011;59159;51.652;4.864;2023-04-06T10:32:32;4.18;;;1.25;;
71351;SDS011;59159;51.652;4.864;2023-04-06T10:35:08;4.03;;;1.10;;
71351;SDS011;59159;51.652;4.864;2023-04-06T10:37:50;5.40;;;1.35;;
71351;SDS011;59159;51.652;4.864;2023-04-06T10:40:23;5.80;;;1.80;;
71351;SDS011;59159;51.652;4.864;2023-04-06T10:42:53;4.80;;;1.40;;
71351;SDS011;59159;51.652;4.864;2023-04-06T10:45:20;4.85;;;1.50;;
71351;SDS011;59159;51.652;4.864;2023-04-06T10:47:46;5.07;;;1.33;;
71351;SDS011;59159;51.652;4.864;2023-04-06T10:50:15;5.07;;;1.73;;
71351;SDS011;59159;51.652;4.864;2023-04-06T10:52:45;4.57;;;1.13;;
71351;SDS011;59159;51.652;4.864;2023-04-06T10:55:11;5.10;;;1.60;;
71351;SDS011;59159;51.652;4.864;2023-04-06T10:57:38;5.80;;;1.60;;
71351;SDS011;59159;51.652;4.864;2023-04-06T11:00:04;4.70;;;1.20;;
71351;SDS011;59159;51.652;4.864;2023-04-06T11:02:31;3.97;;;1.17;;
71351;SDS011;59159;51.652;4.864;2023-04-06T11:04:57;4.90;;;1.27;;
71351;SDS011;59159;51.652;4.864;2023-04-06T11:07:26;4.70;;;1.23;;
71351;SDS011;59159;51.652;4.864;2023-04-06T11:09:54;4.97;;;1.52;;
71351;SDS011;59159;51.652;4.864;2023-04-06T11:12:23;4.00;;;1.27;;
71351;SDS011;59159;51.652;4.864;2023-04-06T11:14:57;4.38;;;1.33;;
71351;SDS011;59159;51.652;4.864;2023-04-06T11:17:33;5.37;;;1.50;;
71351;SDS011;59159;51.652;4.864;2023-04-06T11:20:00;5.25;;;1.60;;
71351;SDS011;59159;51.652;4.864;2023-04-06T11:22:27;5.10;;;1.70;;
71351;SDS011;59159;51.652;4.864;2023-04-06T11:24:53;5.10;;;1.13;;
71351;SDS011;59159;51.652;4.864;2023-04-06T11:27:19;5.00;;;1.48;;
71351;SDS011;59159;51.652;4.864;2023-04-06T11:29:45;5.15;;;1.33;;
71351;SDS011;59159;51.652;4.864;2023-04-06T11:32:19;5.13;;;1.20;;
71351;SDS011;59159;51.652;4.864;2023-04-06T11:34:45;6.60;;;1.40;;
71351;SDS011;59159;51.652;4.864;2023-04-06T11:37:12;5.47;;;1.77;;
71351;SDS011;59159;51.652;4.864;2023-04-06T11:39:39;4.50;;;1.42;;
71351;SDS011;59159;51.652;4.864;2023-04-06T11:42:06;6.23;;;1.70;;
71351;SDS011;59159;51.652;4.864;2023-04-06T11:47:02;5.78;;;1.40;;
71351;SDS011;59159;51.652;4.864;2023-04-06T11:49:28;5.53;;;1.73;;
71351;SDS011;59159;51.652;4.864;2023-04-06T11:51:55;6.15;;;1.48;;
71351;SDS011;59159;51.652;4.864;2023-04-06T11:54:34;6.00;;;1.92;;
71351;SDS011;59159;51.652;4.864;2023-04-06T11:57:01;4.97;;;1.50;;
71351;SDS011;59159;51.652;4.864;2023-04-06T11:59:27;4.60;;;1.70;;
71351;SDS011;59159;51.652;4.864;2023-04-06T12:01:53;4.88;;;1.13;;
71351;SDS011;59159;51.652;4.864;2023-04-06T12:04:20;4.70;;;1.38;;
71351;SDS011;59159;51.652;4.864;2023-04-06T12:06:46;5.00;;;1.23;;
71351;SDS011;59159;51.652;4.864;2023-04-06T12:09:12;3.80;;;1.27;;
71351;SDS011;59159;51.652;4.864;2023-04-06T12:11:38;4.63;;;1.40;;
71351;SDS011;59159;51.652;4.864;2023-04-06T12:14:04;4.73;;;1.30;;
71351;SDS011;59159;51.652;4.864;2023-04-06T12:16:32;3.65;;;1.10;;
71351;SDS011;59159;51.652;4.864;2023-04-06T12:18:59;4.80;;;1.40;;
71351;SDS011;59159;51.652;4.864;2023-04-06T12:21:29;4.23;;;1.33;;
71351;SDS011;59159;51.652;4.864;2023-04-06T12:23:58;5.07;;;1.30;;
71351;SDS011;59159;51.652;4.864;2023-04-06T12:26:25;4.72;;;1.60;;
71351;SDS011;59159;51.652;4.864;2023-04-06T12:28:51;4.57;;;1.38;;
71351;SDS011;59159;51.652;4.864;2023-04-06T12:31:18;5.13;;;1.57;;
71351;SDS011;59159;51.652;4.864;2023-04-06T12:33:47;6.18;;;1.50;;
71351;SDS011;59159;51.652;4.864;2023-04-06T12:36:14;4.80;;;1.17;;
71351;SDS011;59159;51.652;4.864;2023-04-06T12:38:40;4.27;;;1.60;;
71351;SDS011;59159;51.652;4.864;2023-04-06T12:41:07;6.85;;;1.60;;
71351;SDS011;59159;51.652;4.864;2023-04-06T12:43:33;4.28;;;1.27;;
71351;SDS011;59159;51.652;4.864;2023-04-06T12:45:59;6.40;;;1.73;;
71351;SDS011;59159;51.652;4.864;2023-04-06T12:48:25;5.47;;;1.75;;
71351;SDS011;59159;51.652;4.864;2023-04-06T12:50:58;6.13;;;1.40;;
71351;SDS011;59159;51.652;4.864;2023-04-06T12:53:25;4.18;;;1.33;;
71351;SDS011;59159;51.652;4.864;2023-04-06T12:55:51;5.07;;;1.60;;
71351;SDS011;59159;51.652;4.864;2023-04-06T12:58:18;5.38;;;1.60;;
71351;SDS011;59159;51.652;4.864;2023-04-06T13:00:44;4.07;;;1.10;;
71351;SDS011;59159;51.652;4.864;2023-04-06T13:03:10;5.30;;;1.70;;
71351;SDS011;59159;51.652;4.864;2023-04-06T13:05:43;5.65;;;1.67;;
71351;SDS011;59159;51.652;4.864;2023-04-06T13:08:09;6.32;;;1.75;;
71351;SDS011;59159;51.652;4.864;2023-04-06T13:10:35;3.87;;;1.10;;
71351;SDS011;59159;51.652;4.864;2023-04-06T13:13:01;8.88;;;1.95;;
71351;SDS011;59159;51.652;4.864;2023-04-06T13:15:27;5.80;;;1.38;;
71351;SDS011;59159;51.652;4.864;2023-04-06T13:17:53;6.28;;;1.90;;
71351;SDS011;59159;51.652;4.864;2023-04-06T13:20:20;7.97;;;1.77;;
71351;SDS011;59159;51.652;4.864;2023-04-06T13:22:46;7.00;;;1.50;;
71351;SDS011;59159;51.652;4.864;2023-04-06T13:25:12;5.32;;;1.60;;
71351;SDS011;59159;51.652;4.864;2023-04-06T13:27:38;4.57;;;1.33;;
71351;SDS011;59159;51.652;4.864;2023-04-06T13:30:04;5.75;;;1.63;;
71351;SDS011;59159;51.652;4.864;2023-04-06T13:32:30;6.10;;;1.35;;
71351;SDS011;59159;51.652;4.864;2023-04-06T13:34:57;5.10;;;1.73;;
71351;SDS011;59159;51.652;4.864;2023-04-06T13:37:23;5.03;;;1.50;;
71351;SDS011;59159;51.652;4.864;2023-04-06T13:39:49;4.95;;;1.13;;
71351;SDS011;59159;51.652;4.864;2023-04-06T13:42:15;5.30;;;1.80;;
71351;SDS011;59159;51.652;4.864;2023-04-06T13:44:42;5.17;;;1.57;;
71351;SDS011;59159;51.652;4.864;2023-04-06T13:47:11;5.63;;;1.90;;
71351;SDS011;59159;51.652;4.864;2023-04-06T13:49:37;5.78;;;1.60;;
71351;SDS011;59159;51.652;4.864;2023-04-06T13:52:03;5.13;;;1.50;;
71351;SDS011;59159;51.652;4.864;2023-04-06T13:54:29;5.68;;;1.58;;
71351;SDS011;59159;51.652;4.864;2023-04-06T13:56:55;4.85;;;1.63;;
71351;SDS011;59159;51.652;4.864;2023-04-06T13:59:21;6.80;;;1.70;;
71351;SDS011;59159;51.652;4.864;2023-04-06T14:01:48;5.40;;;1.58;;
71351;SDS011;59159;51.652;4.864;2023-04-06T14:04:14;6.18;;;1.35;;
71351;SDS011;59159;51.652;4.864;2023-04-06T14:06:40;5.63;;;1.65;;
71351;SDS011;59159;51.652;4.864;2023-04-06T14:09:06;6.23;;;1.83;;
71351;SDS011;59159;51.652;4.864;2023-04-06T14:11:32;6.07;;;1.83;;
71351;SDS011;59159;51.652;4.864;2023-04-06T14:13:58;6.35;;;1.55;;
71351;SDS011;59159;51.652;4.864;2023-04-06T14:16:25;5.87;;;1.63;;
71351;SDS011;59159;51.652;4.864;2023-04-06T14:18:51;5.22;;;1.42;;
71351;SDS011;59159;51.652;4.864;2023-04-06T14:21:17;6.40;;;1.70;;
71351;SDS011;59159;51.652;4.864;2023-04-06T14:23:43;6.50;;;2.00;;
71351;SDS011;59159;51.652;4.864;2023-04-06T14:26:11;6.57;;;1.80;;
71351;SDS011;59159;51.652;4.864;2023-04-06T14:28:37;5.82;;;2.20;;
71351;SDS011;59159;51.652;4.864;2023-04-06T14:31:10;5.75;;;1.90;;
71351;SDS011;59159;51.652;4.864;2023-04-06T14:33:40;5.93;;;2.03;;
71351;SDS011;59159;51.652;4.864;2023-04-06T14:36:07;8.13;;;3.10;;
71351;SDS011;59159;51.652;4.864;2023-04-06T14:38:33;7.18;;;1.98;;
71351;SDS011;59159;51.652;4.864;2023-04-06T14:40:59;7.17;;;2.00;;
71351;SDS011;59159;51.652;4.864;2023-04-06T14:43:25;5.45;;;1.75;;
71351;SDS011;59159;51.652;4.864;2023-04-06T14:45:51;5.28;;;1.80;;
71351;SDS011;59159;51.652;4.864;2023-04-06T14:48:17;5.97;;;2.20;;
71351;SDS011;59159;51.652;4.864;2023-04-06T14:50:53;6.40;;;1.77;;